»·PEaware :: GSA480 KJFK-CYYZ

GSA480 :: KJFK-CYYZ

FLIGHT INFORMATION

Flight Status: Arrived
Operator:
Global Sim Alliance
More flights by this operator :: More flights under this callsign
Pilot: Richard S. (14671)
Aircraft: Unknown
(EPIC)
More flights by this aircraft type
Origin: KJFK Kennedy Intl
United States
Destination: CYYZ Toronto/Pearson Intl
Canada
More flights between these airports :: More routes between these airports
Route: GAYEL Q818 WOZEE LINNG5
File this flight plan on PilotEdge
Remarks:
Altitude:
(Current/Filed)
28,000ft
Speed:
(Current/Filed)
300kts
Departed: 25-Dec-17 01:17 PM
Arrived: 25-Dec-17 03:17 PM
Distance/Time
Traveled:
319nm/2:00
Distance/Time
To Go:
Arrived

Flight Plot

Page will automatically refresh every two minutes.

Flight plan parsing failed; only flown route is shown


Map Options




Map Legend


Flown Route
Filed Route
Departure Airport
Arrival Airport
Navaid (VOR, NDB)
Fix

Horizontal Profiles

Position Reports

Time Latitude Longitude Heading Altitude Ground
Speed
25-Dec-17 13:20 40.647495 -73.804986 331 11ft 0kts
25-Dec-17 13:21 40.647264 -73.805455 165 11ft 13kts
25-Dec-17 13:22 40.643747 -73.802592 117 10ft 24kts
25-Dec-17 13:23 40.638444 -73.791896 125 7ft 44kts
25-Dec-17 13:24 40.633417 -73.779776 63 7ft 25kts
25-Dec-17 13:25 40.631962 -73.775508 122 7ft 23kts
25-Dec-17 13:26 40.639074 -73.768941 29 10ft 43kts
25-Dec-17 13:27 40.646039 -73.764410 298 10ft 18kts
25-Dec-17 13:28 40.653242 -73.779262 296 414ft 137kts
25-Dec-17 13:29 40.675351 -73.828660 329 2329ft 204kts
25-Dec-17 13:30 40.728405 -73.850922 330 4718ft 216kts
25-Dec-17 13:31 40.779620 -73.884505 327 7189ft 218kts
25-Dec-17 13:32 40.828858 -73.920063 322 9693ft 212kts
25-Dec-17 13:33 40.874538 -73.953898 314 12281ft 191kts
25-Dec-17 13:34 40.916465 -73.985342 309 14738ft 173kts
25-Dec-17 13:35 40.953777 -74.013393 303 16965ft 158kts
25-Dec-17 13:36 40.988623 -74.039681 298 19071ft 144kts
25-Dec-17 13:37 41.020848 -74.064081 295 20958ft 137kts
25-Dec-17 13:38 41.051535 -74.087309 292 22682ft 131kts
25-Dec-17 13:39 41.081548 -74.110058 291 24296ft 128kts
25-Dec-17 13:40 41.109457 -74.131201 290 25718ft 127kts
25-Dec-17 13:41 41.138681 -74.153330 289 27091ft 124kts
25-Dec-17 13:42 41.167480 -74.175489 292 27988ft 142kts
25-Dec-17 13:43 41.206858 -74.205558 300 27986ft 194kts
25-Dec-17 13:44 41.255095 -74.241954 302 27961ft 219kts
25-Dec-17 13:45 41.307839 -74.281921 303 27959ft 231kts
25-Dec-17 13:46 41.362787 -74.323748 304 27958ft 236kts
25-Dec-17 13:47 41.410882 -74.372017 283 27960ft 194kts
25-Dec-17 13:48 41.438256 -74.431474 281 27955ft 193kts
25-Dec-17 13:49 41.464751 -74.491689 281 27954ft 192kts
25-Dec-17 13:50 41.490787 -74.551689 281 27953ft 192kts
25-Dec-17 13:51 41.516461 -74.611116 281 27946ft 192kts
25-Dec-17 13:52 41.541182 -74.668472 281 27948ft 193kts
25-Dec-17 13:53 41.566221 -74.726674 281 27948ft 195kts
25-Dec-17 13:54 41.591133 -74.784693 281 27946ft 196kts
25-Dec-17 13:55 41.616724 -74.844453 281 27945ft 197kts
25-Dec-17 13:56 41.643581 -74.907311 281 27943ft 197kts
25-Dec-17 13:57 41.669325 -74.967718 281 27943ft 199kts
25-Dec-17 13:58 41.694524 -75.026951 282 27941ft 202kts
25-Dec-17 13:59 41.719399 -75.085520 282 27940ft 203kts
25-Dec-17 14:00 41.745349 -75.146744 282 27938ft 203kts
25-Dec-17 14:01 41.770020 -75.205102 282 27937ft 203kts
25-Dec-17 14:02 41.794517 -75.263112 282 27935ft 202kts
25-Dec-17 14:03 41.820826 -75.325564 282 27934ft 202kts
25-Dec-17 14:04 41.847574 -75.389194 282 27933ft 201kts
25-Dec-17 14:05 41.874297 -75.452904 282 27956ft 200kts
25-Dec-17 14:06 41.900917 -75.516512 282 27957ft 200kts
25-Dec-17 14:07 41.927255 -75.579576 282 27956ft 200kts
25-Dec-17 14:08 41.953675 -75.642975 282 27954ft 200kts
25-Dec-17 14:09 41.979656 -75.705479 282 27979ft 202kts
25-Dec-17 14:10 42.005569 -75.767904 282 27988ft 204kts
25-Dec-17 14:11 42.032219 -75.832272 282 28002ft 204kts
25-Dec-17 14:12 42.058293 -75.895357 282 28001ft 204kts
25-Dec-17 14:13 42.084944 -75.959994 282 27999ft 204kts
25-Dec-17 14:14 42.111271 -76.023986 282 27990ft 203kts
25-Dec-17 14:15 42.137508 -76.087899 282 27989ft 202kts
25-Dec-17 14:16 42.164524 -76.150815 275 27994ft 191kts
25-Dec-17 14:17 42.183644 -76.215954 278 27986ft 194kts
25-Dec-17 14:18 42.203972 -76.280769 278 27992ft 194kts
25-Dec-17 14:19 42.224455 -76.345169 278 28010ft 193kts
25-Dec-17 14:20 42.244837 -76.409075 279 28009ft 193kts
25-Dec-17 14:21 42.265342 -76.473432 279 28007ft 193kts
25-Dec-17 14:22 42.285863 -76.537983 278 28005ft 192kts
25-Dec-17 14:23 42.306466 -76.602902 277 28005ft 196kts
25-Dec-17 14:24 42.325992 -76.664705 277 28024ft 199kts
25-Dec-17 14:25 42.346727 -76.730396 277 28026ft 203kts
25-Dec-17 14:26 42.368275 -76.798815 277 28024ft 204kts
25-Dec-17 14:27 42.389734 -76.867128 277 28049ft 204kts
25-Dec-17 14:28 42.410766 -76.934269 277 28049ft 204kts
25-Dec-17 14:29 42.432040 -77.002357 277 28047ft 204kts
25-Dec-17 14:30 42.453328 -77.070702 277 28046ft 204kts
25-Dec-17 14:31 42.474519 -77.138924 277 28044ft 204kts
25-Dec-17 14:32 42.495859 -77.207808 277 28043ft 203kts
25-Dec-17 14:33 42.517285 -77.277149 277 28041ft 203kts
25-Dec-17 14:34 42.538169 -77.344915 277 28040ft 203kts
25-Dec-17 14:35 42.555595 -77.401597 277 28039ft 202kts
25-Dec-17 14:36 42.576300 -77.469102 277 28037ft 202kts
25-Dec-17 14:37 42.597269 -77.537644 277 28036ft 202kts
25-Dec-17 14:38 42.621159 -77.615957 277 28034ft 201kts
25-Dec-17 14:39 42.636070 -77.664994 277 28054ft 201kts
25-Dec-17 14:40 42.655970 -77.730514 277 28074ft 204kts
25-Dec-17 14:41 42.671164 -77.783772 276 28081ft 203kts
25-Dec-17 14:42 42.689372 -77.848664 276 28080ft 204kts
25-Dec-17 14:43 42.707986 -77.915306 276 28079ft 204kts
25-Dec-17 14:44 42.727247 -77.984494 276 28077ft 204kts
25-Dec-17 14:45 42.746350 -78.053319 276 28076ft 204kts
25-Dec-17 14:46 42.765599 -78.122868 276 28074ft 203kts
25-Dec-17 14:47 42.784608 -78.191742 276 28073ft 203kts
25-Dec-17 14:48 42.803362 -78.259887 276 28046ft 203kts
25-Dec-17 14:49 42.822388 -78.329201 276 28043ft 203kts
25-Dec-17 14:50 42.840906 -78.396858 276 28042ft 202kts
25-Dec-17 14:51 42.859587 -78.465305 276 28040ft 202kts
25-Dec-17 14:52 42.878244 -78.533851 276 28039ft 201kts
25-Dec-17 14:53 42.897080 -78.603334 276 27817ft 208kts
25-Dec-17 14:54 42.915900 -78.672901 276 27411ft 215kts
25-Dec-17 14:55 42.939949 -78.747654 297 26989ft 274kts
25-Dec-17 14:56 42.987678 -78.826839 294 26397ft 291kts
25-Dec-17 14:57 43.037960 -78.911473 296 25836ft 304kts
25-Dec-17 14:58 43.090556 -78.999215 296 25014ft 317kts
25-Dec-17 14:59 43.144393 -79.089095 297 23923ft 327kts
25-Dec-17 15:00 43.199101 -79.180663 297 22853ft 331kts
25-Dec-17 15:01 43.254948 -79.274492 298 21308ft 343kts
25-Dec-17 15:02 43.317011 -79.360247 320 19282ft 343kts
25-Dec-17 15:03 43.391036 -79.410960 324 17052ft 319kts
25-Dec-17 15:04 43.450434 -79.449530 325 15159ft 286kts
25-Dec-17 15:05 43.500358 -79.481843 326 13469ft 262kts
25-Dec-17 15:06 43.546861 -79.511928 328 11836ft 245kts
25-Dec-17 15:07 43.594696 -79.529219 17 10143ft 254kts
25-Dec-17 15:08 43.643796 -79.472532 39 8241ft 249kts
25-Dec-17 15:09 43.683384 -79.417064 43 6574ft 241kts
25-Dec-17 15:10 43.723834 -79.358292 46 4844ft 233kts
25-Dec-17 15:11 43.764410 -79.299000 46 3087ft 223kts
25-Dec-17 15:12 43.803439 -79.242045 42 2685ft 208kts
25-Dec-17 15:13 43.829017 -79.276426 246 2081ft 201kts
25-Dec-17 15:14 43.818125 -79.322253 252 1737ft 188kts
25-Dec-17 15:15 43.808010 -79.362996 252 1633ft 178kts
25-Dec-17 15:16 43.791995 -79.426777 250 1803ft 201kts
25-Dec-17 15:17 43.776369 -79.483023 239 1826ft 142kts
25-Dec-17 15:18 43.760503 -79.523853 247 1359ft 120kts
25-Dec-17 15:19 43.745958 -79.558006 235 918ft 112kts
25-Dec-17 15:20 43.727109 -79.586347 231 1092ft 122kts
25-Dec-17 15:21 43.705365 -79.618618 229 814ft 142kts
25-Dec-17 15:22 43.688310 -79.643514 227 548ft 47kts
25-Dec-17 15:23 43.686784 -79.651333 244 545ft 21kts
25-Dec-17 15:24 43.682582 -79.655112 229 545ft 24kts
25-Dec-17 15:25 43.679160 -79.660055 226 545ft 28kts
25-Dec-17 15:26 43.675556 -79.665044 82 545ft 12kts
25-Dec-17 15:27 43.680223 -79.658549 44 545ft 60kts
25-Dec-17 15:28 43.682228 -79.658417 318 545ft 0kts
25-Dec-17 15:29 43.761899 -79.519810 245 1402ft 124kts
25-Dec-17 15:30 43.750243 -79.549468 239 1019ft 111kts
25-Dec-17 15:31 43.720497 -79.596565 229 1179ft 123kts
25-Dec-17 15:32 43.695781 -79.632484 231 621ft 112kts
25-Dec-17 15:33 43.687575 -79.644575 228 548ft 42kts
25-Dec-17 15:34 43.686865 -79.649316 265 545ft 20kts

Navigation Log

Ident Type
Flight plan parsing failed, navigation log unavailable